sensor_id;sensor_type;location;lat;lon;timestamp;pressure;altitude;pressure_sealevel;temperature;humidity
43364;BME280;40636;52.424;-1.948;2023-01-10T00:00:30;99529.94;;;2.49;100.00
43364;BME280;40636;52.424;-1.948;2023-01-10T00:03:01;99540.38;;;2.45;100.00
43364;BME280;40636;52.424;-1.948;2023-01-10T00:05:28;99546.41;;;2.47;100.00
43364;BME280;40636;52.424;-1.948;2023-01-10T00:07:55;99548.69;;;2.50;100.00
43364;BME280;40636;52.424;-1.948;2023-01-10T00:10:22;99551.19;;;2.52;100.00
43364;BME280;40636;52.424;-1.948;2023-01-10T00:12:49;99554.53;;;2.47;100.00
43364;BME280;40636;52.424;-1.948;2023-01-10T00:15:35;99565.75;;;2.44;100.00
43364;BME280;40636;52.424;-1.948;2023-01-10T00:18:02;99557.00;;;2.49;100.00
43364;BME280;40636;52.424;-1.948;2023-01-10T00:20:30;99555.97;;;2.57;100.00
43364;BME280;40636;52.424;-1.948;2023-01-10T00:22:57;99554.53;;;2.61;100.00
43364;BME280;40636;52.424;-1.948;2023-01-10T00:25:23;99542.84;;;2.60;100.00
43364;BME280;40636;52.424;-1.948;2023-01-10T00:27:54;99549.31;;;2.66;100.00
43364;BME280;40636;52.424;-1.948;2023-01-10T00:30:37;99543.69;;;2.74;100.00
43364;BME280;40636;52.424;-1.948;2023-01-10T00:33:06;99539.91;;;2.82;100.00
43364;BME280;40636;52.424;-1.948;2023-01-10T00:35:33;99541.56;;;2.89;100.00
43364;BME280;40636;52.424;-1.948;2023-01-10T00:38:01;99547.00;;;2.96;100.00
43364;BME280;40636;52.424;-1.948;2023-01-10T00:40:32;99542.59;;;3.01;100.00
43364;BME280;40636;52.424;-1.948;2023-01-10T00:42:59;99553.63;;;3.07;100.00
43364;BME280;40636;52.424;-1.948;2023-01-10T00:45:45;99548.63;;;3.10;100.00
43364;BME280;40636;52.424;-1.948;2023-01-10T00:48:13;99550.72;;;3.15;100.00
43364;BME280;40636;52.424;-1.948;2023-01-10T00:50:40;99548.19;;;3.13;100.00
43364;BME280;40636;52.424;-1.948;2023-01-10T00:53:07;99549.06;;;3.14;100.00
43364;BME280;40636;52.424;-1.948;2023-01-10T00:55:35;99546.94;;;3.16;100.00
43364;BME280;40636;52.424;-1.948;2023-01-10T00:58:02;99531.72;;;3.15;100.00
43364;BME280;40636;52.424;-1.948;2023-01-10T01:00:31;99539.63;;;3.16;100.00
43364;BME280;40636;52.424;-1.948;2023-01-10T01:03:01;99537.75;;;3.17;100.00
43364;BME280;40636;52.424;-1.948;2023-01-10T01:05:28;99549.84;;;3.21;100.00
43364;BME280;40636;52.424;-1.948;2023-01-10T01:07:54;99542.75;;;3.20;100.00
43364;BME280;40636;52.424;-1.948;2023-01-10T01:10:21;99541.50;;;3.22;100.00
43364;BME280;40636;52.424;-1.948;2023-01-10T01:12:58;99542.34;;;3.23;100.00
43364;BME280;40636;52.424;-1.948;2023-01-10T01:15:26;99537.94;;;3.28;100.00
43364;BME280;40636;52.424;-1.948;2023-01-10T01:17:53;99533.97;;;3.31;100.00
43364;BME280;40636;52.424;-1.948;2023-01-10T01:20:21;99541.69;;;3.34;100.00
43364;BME280;40636;52.424;-1.948;2023-01-10T01:22:48;99551.47;;;3.35;100.00
43364;BME280;40636;52.424;-1.948;2023-01-10T01:25:15;99544.56;;;3.39;100.00
43364;BME280;40636;52.424;-1.948;2023-01-10T01:27:42;99542.69;;;3.40;100.00
43364;BME280;40636;52.424;-1.948;2023-01-10T01:30:10;99538.09;;;3.40;100.00
43364;BME280;40636;52.424;-1.948;2023-01-10T01:32:37;99536.44;;;3.39;100.00
43364;BME280;40636;52.424;-1.948;2023-01-10T01:35:05;99518.09;;;3.41;100.00
43364;BME280;40636;52.424;-1.948;2023-01-10T01:37:32;99517.22;;;3.47;100.00
43364;BME280;40636;52.424;-1.948;2023-01-10T01:39:59;99522.81;;;3.52;100.00
43364;BME280;40636;52.424;-1.948;2023-01-10T01:42:31;99515.69;;;3.58;100.00
43364;BME280;40636;52.424;-1.948;2023-01-10T01:47:46;99508.78;;;3.69;100.00
43364;BME280;40636;52.424;-1.948;2023-01-10T01:50:18;99524.59;;;3.72;100.00
43364;BME280;40636;52.424;-1.948;2023-01-10T01:52:50;99538.81;;;3.74;100.00
43364;BME280;40636;52.424;-1.948;2023-01-10T01:55:18;99545.06;;;3.74;100.00
43364;BME280;40636;52.424;-1.948;2023-01-10T01:57:46;99544.00;;;3.75;100.00
43364;BME280;40636;52.424;-1.948;2023-01-10T02:00:14;99545.25;;;3.79;100.00
43364;BME280;40636;52.424;-1.948;2023-01-10T02:02:48;99542.94;;;3.83;100.00
43364;BME280;40636;52.424;-1.948;2023-01-10T02:05:28;99544.16;;;3.87;100.00
43364;BME280;40636;52.424;-1.948;2023-01-10T02:07:58;99545.41;;;3.91;100.00
43364;BME280;40636;52.424;-1.948;2023-01-10T02:10:39;99541.22;;;3.95;100.00
43364;BME280;40636;52.424;-1.948;2023-01-10T02:13:08;99536.97;;;3.99;100.00
43364;BME280;40636;52.424;-1.948;2023-01-10T02:15:36;99521.09;;;4.03;100.00
43364;BME280;40636;52.424;-1.948;2023-01-10T02:18:03;99521.09;;;4.03;100.00
43364;BME280;40636;52.424;-1.948;2023-01-10T02:23:53;99522.97;;;4.02;100.00
43364;BME280;40636;52.424;-1.948;2023-01-10T02:40:32;99536.56;;;4.02;100.00
43364;BME280;40636;52.424;-1.948;2023-01-10T02:43:04;99520.91;;;4.04;100.00
43364;BME280;40636;52.424;-1.948;2023-01-10T02:45:45;99530.69;;;4.05;100.00
43364;BME280;40636;52.424;-1.948;2023-01-10T02:48:15;99529.03;;;4.04;100.00
43364;BME280;40636;52.424;-1.948;2023-01-10T02:50:48;99521.50;;;4.06;100.00
43364;BME280;40636;52.424;-1.948;2023-01-10T02:53:39;99515.25;;;4.06;100.00
43364;BME280;40636;52.424;-1.948;2023-01-10T02:59:05;99508.16;;;4.05;100.00
43364;BME280;40636;52.424;-1.948;2023-01-10T03:04:33;99485.59;;;4.04;100.00
43364;BME280;40636;52.424;-1.948;2023-01-10T03:07:27;99481.03;;;3.98;100.00
43364;BME280;40636;52.424;-1.948;2023-01-10T03:10:05;99468.09;;;4.00;100.00
43364;BME280;40636;52.424;-1.948;2023-01-10T03:12:53;99471.63;;;4.01;100.00
43364;BME280;40636;52.424;-1.948;2023-01-10T03:15:27;99461.59;;;4.01;100.00
43364;BME280;40636;52.424;-1.948;2023-01-10T03:17:57;99449.69;;;4.02;100.00
43364;BME280;40636;52.424;-1.948;2023-01-10T03:20:29;99454.50;;;4.00;100.00
43364;BME280;40636;52.424;-1.948;2023-01-10T03:22:59;99461.16;;;4.04;100.00
43364;BME280;40636;52.424;-1.948;2023-01-10T03:25:31;99472.22;;;4.03;100.00
43364;BME280;40636;52.424;-1.948;2023-01-10T03:31:07;99465.38;;;4.00;100.00
43364;BME280;40636;52.424;-1.948;2023-01-10T03:33:34;99461.38;;;4.03;100.00
43364;BME280;40636;52.424;-1.948;2023-01-10T03:36:10;99464.47;;;4.06;100.00
43364;BME280;40636;52.424;-1.948;2023-01-10T03:38:57;99474.28;;;4.07;100.00
43364;BME280;40636;52.424;-1.948;2023-01-10T03:41:36;99478.22;;;4.12;100.00
43364;BME280;40636;52.424;-1.948;2023-01-10T03:44:16;99473.41;;;4.14;100.00
43364;BME280;40636;52.424;-1.948;2023-01-10T03:49:40;99443.56;;;4.14;100.00
43364;BME280;40636;52.424;-1.948;2023-01-10T03:52:12;99446.28;;;4.14;100.00
43364;BME280;40636;52.424;-1.948;2023-01-10T03:54:44;99433.28;;;4.16;100.00
43364;BME280;40636;52.424;-1.948;2023-01-10T03:57:17;99434.75;;;4.18;100.00
43364;BME280;40636;52.424;-1.948;2023-01-10T03:59:44;99425.72;;;4.18;100.00
43364;BME280;40636;52.424;-1.948;2023-01-10T04:02:11;99414.66;;;4.19;100.00
43364;BME280;40636;52.424;-1.948;2023-01-10T04:04:38;99414.44;;;4.21;100.00
43364;BME280;40636;52.424;-1.948;2023-01-10T04:07:04;99418.06;;;4.15;100.00
43364;BME280;40636;52.424;-1.948;2023-01-10T04:09:32;99413.22;;;4.17;100.00
43364;BME280;40636;52.424;-1.948;2023-01-10T04:11:59;99413.38;;;4.22;100.00
43364;BME280;40636;52.424;-1.948;2023-01-10T04:14:26;99402.09;;;4.25;100.00
43364;BME280;40636;52.424;-1.948;2023-01-10T04:16:53;99405.38;;;4.27;100.00
43364;BME280;40636;52.424;-1.948;2023-01-10T04:19:20;99400.81;;;4.27;100.00
43364;BME280;40636;52.424;-1.948;2023-01-10T04:21:46;99401.41;;;4.29;100.00
43364;BME280;40636;52.424;-1.948;2023-01-10T04:24:13;99397.19;;;4.33;100.00
43364;BME280;40636;52.424;-1.948;2023-01-10T04:26:40;99392.97;;;4.38;100.00
43364;BME280;40636;52.424;-1.948;2023-01-10T04:29:07;99384.59;;;4.39;100.00
43364;BME280;40636;52.424;-1.948;2023-01-10T04:31:33;99395.03;;;4.42;100.00
43364;BME280;40636;52.424;-1.948;2023-01-10T04:34:00;99394.59;;;4.45;100.00
43364;BME280;40636;52.424;-1.948;2023-01-10T04:36:27;99383.72;;;4.45;100.00
43364;BME280;40636;52.424;-1.948;2023-01-10T04:38:53;99381.84;;;4.46;100.00
43364;BME280;40636;52.424;-1.948;2023-01-10T04:41:20;99381.59;;;4.47;100.00
43364;BME280;40636;52.424;-1.948;2023-01-10T04:43:47;99374.66;;;4.51;100.00
43364;BME280;40636;52.424;-1.948;2023-01-10T04:46:15;99388.84;;;4.53;100.00
43364;BME280;40636;52.424;-1.948;2023-01-10T04:48:42;99382.38;;;4.54;100.00
43364;BME280;40636;52.424;-1.948;2023-01-10T04:51:09;99377.75;;;4.55;100.00
43364;BME280;40636;52.424;-1.948;2023-01-10T04:53:35;99371.50;;;4.54;100.00
43364;BME280;40636;52.424;-1.948;2023-01-10T04:56:07;99374.81;;;4.56;100.00
43364;BME280;40636;52.424;-1.948;2023-01-10T04:58:35;99378.97;;;4.59;100.00
43364;BME280;40636;52.424;-1.948;2023-01-10T05:01:09;99376.03;;;4.61;100.00
43364;BME280;40636;52.424;-1.948;2023-01-10T05:03:36;99372.25;;;4.62;100.00
43364;BME280;40636;52.424;-1.948;2023-01-10T05:06:04;99370.16;;;4.64;100.00
43364;BME280;40636;52.424;-1.948;2023-01-10T05:08:31;99372.63;;;4.65;100.00
43364;BME280;40636;52.424;-1.948;2023-01-10T05:10:58;99364.25;;;4.67;100.00
43364;BME280;40636;52.424;-1.948;2023-01-10T05:13:25;99365.69;;;4.69;100.00
43364;BME280;40636;52.424;-1.948;2023-01-10T05:15:56;99364.19;;;4.73;100.00
43364;BME280;40636;52.424;-1.948;2023-01-10T05:18:24;99370.00;;;4.77;100.00
43364;BME280;40636;52.424;-1.948;2023-01-10T05:20:52;99368.94;;;4.78;100.00
43364;BME280;40636;52.424;-1.948;2023-01-10T05:23:18;99357.22;;;4.77;100.00
43364;BME280;40636;52.424;-1.948;2023-01-10T05:25:46;99352.84;;;4.76;100.00
43364;BME280;40636;52.424;-1.948;2023-01-10T05:28:12;99359.94;;;4.77;100.00
43364;BME280;40636;52.424;-1.948;2023-01-10T05:30:39;99356.63;;;4.75;100.00
43364;BME280;40636;52.424;-1.948;2023-01-10T05:33:05;99345.53;;;4.77;100.00
43364;BME280;40636;52.424;-1.948;2023-01-10T05:35:33;99341.97;;;4.76;100.00
43364;BME280;40636;52.424;-1.948;2023-01-10T05:37:59;99339.63;;;4.80;100.00
43364;BME280;40636;52.424;-1.948;2023-01-10T05:40:26;99322.72;;;4.78;100.00
43364;BME280;40636;52.424;-1.948;2023-01-10T05:42:53;99322.94;;;4.76;100.00
43364;BME280;40636;52.424;-1.948;2023-01-10T05:45:19;99315.63;;;4.77;100.00
43364;BME280;40636;52.424;-1.948;2023-01-10T05:47:46;99311.84;;;4.78;100.00
43364;BME280;40636;52.424;-1.948;2023-01-10T05:50:13;99319.38;;;4.76;100.00
43364;BME280;40636;52.424;-1.948;2023-01-10T05:52:40;99307.00;;;4.80;100.00
43364;BME280;40636;52.424;-1.948;2023-01-10T05:55:07;99299.69;;;4.80;100.00
43364;BME280;40636;52.424;-1.948;2023-01-10T05:57:33;99303.00;;;4.82;100.00
43364;BME280;40636;52.424;-1.948;2023-01-10T06:00:00;99294.94;;;4.76;100.00
43364;BME280;40636;52.424;-1.948;2023-01-10T06:02:30;99289.50;;;4.76;100.00
43364;BME280;40636;52.424;-1.948;2023-01-10T06:04:57;99294.94;;;4.76;100.00
43364;BME280;40636;52.424;-1.948;2023-01-10T06:07:23;99287.16;;;4.79;100.00
43364;BME280;40636;52.424;-1.948;2023-01-10T06:09:51;99272.88;;;4.84;100.00
43364;BME280;40636;52.424;-1.948;2023-01-10T06:12:18;99277.47;;;4.83;100.00
43364;BME280;40636;52.424;-1.948;2023-01-10T06:14:44;99264.84;;;4.89;100.00
43364;BME280;40636;52.424;-1.948;2023-01-10T06:17:11;99254.91;;;4.83;100.00
43364;BME280;40636;52.424;-1.948;2023-01-10T06:19:38;99256.56;;;4.84;100.00
43364;BME280;40636;52.424;-1.948;2023-01-10T06:22:05;99251.13;;;4.84;100.00
43364;BME280;40636;52.424;-1.948;2023-01-10T06:24:32;99234.81;;;4.84;100.00
43364;BME280;40636;52.424;-1.948;2023-01-10T06:26:59;99229.38;;;4.84;100.00
43364;BME280;40636;52.424;-1.948;2023-01-10T06:29:26;99220.78;;;4.87;100.00
43364;BME280;40636;52.424;-1.948;2023-01-10T06:31:53;99212.63;;;4.87;100.00
43364;BME280;40636;52.424;-1.948;2023-01-10T06:34:20;99208.59;;;4.90;100.00
43364;BME280;40636;52.424;-1.948;2023-01-10T06:36:46;99193.59;;;4.87;100.00
43364;BME280;40636;52.424;-1.948;2023-01-10T06:39:13;99194.66;;;4.86;100.00
43364;BME280;40636;52.424;-1.948;2023-01-10T06:41:40;99186.50;;;4.86;100.00
43364;BME280;40636;52.424;-1.948;2023-01-10T06:44:06;99178.78;;;4.83;100.00
43364;BME280;40636;52.424;-1.948;2023-01-10T06:46:33;99172.75;;;4.81;100.00
43364;BME280;40636;52.424;-1.948;2023-01-10T06:49:00;99170.03;;;4.81;100.00
43364;BME280;40636;52.424;-1.948;2023-01-10T06:51:27;99164.59;;;4.81;100.00
43364;BME280;40636;52.424;-1.948;2023-01-10T06:53:53;99161.75;;;4.76;100.00
43364;BME280;40636;52.424;-1.948;2023-01-10T06:56:20;99149.84;;;4.77;100.00
43364;BME280;40636;52.424;-1.948;2023-01-10T06:58:48;99144.97;;;4.79;100.00
43364;BME280;40636;52.424;-1.948;2023-01-10T07:01:18;99128.56;;;4.74;100.00
43364;BME280;40636;52.424;-1.948;2023-01-10T07:03:45;99125.84;;;4.74;100.00
43364;BME280;40636;52.424;-1.948;2023-01-10T07:06:12;99120.41;;;4.74;100.00
43364;BME280;40636;52.424;-1.948;2023-01-10T07:08:41;99109.53;;;4.74;100.00
43364;BME280;40636;52.424;-1.948;2023-01-10T07:11:08;99112.81;;;4.76;100.00
43364;BME280;40636;52.424;-1.948;2023-01-10T07:13:35;99095.94;;;4.74;100.00
43364;BME280;40636;52.424;-1.948;2023-01-10T07:16:03;99091.56;;;4.73;100.00
43364;BME280;40636;52.424;-1.948;2023-01-10T07:18:32;99081.97;;;4.70;100.00
43364;BME280;40636;52.424;-1.948;2023-01-10T07:20:59;99069.34;;;4.76;100.00
43364;BME280;40636;52.424;-1.948;2023-01-10T07:23:25;99062.25;;;4.75;100.00
43364;BME280;40636;52.424;-1.948;2023-01-10T07:25:52;99060.97;;;4.77;100.00
43364;BME280;40636;52.424;-1.948;2023-01-10T07:28:19;99049.75;;;4.74;100.00
43364;BME280;40636;52.424;-1.948;2023-01-10T07:30:45;99042.66;;;4.73;100.00
43364;BME280;40636;52.424;-1.948;2023-01-10T07:33:12;99041.78;;;4.72;100.00
43364;BME280;40636;52.424;-1.948;2023-01-10T07:35:39;99032.38;;;4.75;100.00
43364;BME280;40636;52.424;-1.948;2023-01-10T07:38:05;99030.47;;;4.75;100.00
43364;BME280;40636;52.424;-1.948;2023-01-10T07:40:32;99010.50;;;4.70;100.00
43364;BME280;40636;52.424;-1.948;2023-01-10T07:43:00;99003.28;;;4.75;100.00
43364;BME280;40636;52.424;-1.948;2023-01-10T07:45:28;98999.75;;;4.75;100.00
43364;BME280;40636;52.424;-1.948;2023-01-10T07:47:59;98992.06;;;4.72;100.00
43364;BME280;40636;52.424;-1.948;2023-01-10T07:50:28;98988.88;;;4.75;100.00
43364;BME280;40636;52.424;-1.948;2023-01-10T07:52:55;98980.00;;;4.79;100.00
43364;BME280;40636;52.424;-1.948;2023-01-10T07:55:22;98979.75;;;4.81;100.00
43364;BME280;40636;52.424;-1.948;2023-01-10T07:57:49;98990.63;;;4.81;100.00
43364;BME280;40636;52.424;-1.948;2023-01-10T08:00:17;98974.81;;;4.78;100.00
43364;BME280;40636;52.424;-1.948;2023-01-10T08:02:45;98971.59;;;4.81;100.00
43364;BME280;40636;52.424;-1.948;2023-01-10T08:05:12;98957.09;;;4.87;100.00
43364;BME280;40636;52.424;-1.948;2023-01-10T08:07:39;98947.63;;;4.90;100.00
43364;BME280;40636;52.424;-1.948;2023-01-10T08:10:07;98942.78;;;4.92;100.00
43364;BME280;40636;52.424;-1.948;2023-01-10T08:12:33;98936.28;;;4.93;100.00
43364;BME280;40636;52.424;-1.948;2023-01-10T08:15:00;98927.31;;;4.92;100.00
43364;BME280;40636;52.424;-1.948;2023-01-10T08:17:27;98922.44;;;4.94;100.00
43364;BME280;40636;52.424;-1.948;2023-01-10T08:19:54;98929.31;;;4.97;100.00
43364;BME280;40636;52.424;-1.948;2023-01-10T08:22:20;98905.41;;;4.99;100.00
43364;BME280;40636;52.424;-1.948;2023-01-10T08:24:47;98907.66;;;5.02;100.00
43364;BME280;40636;52.424;-1.948;2023-01-10T08:27:14;98895.69;;;5.03;100.00
43364;BME280;40636;52.424;-1.948;2023-01-10T08:29:41;98896.06;;;5.06;100.00
43364;BME280;40636;52.424;-1.948;2023-01-10T08:32:08;98895.09;;;5.13;100.00
43364;BME280;40636;52.424;-1.948;2023-01-10T08:34:35;98891.88;;;5.16;100.00
43364;BME280;40636;52.424;-1.948;2023-01-10T08:37:01;98896.34;;;5.22;100.00
43364;BME280;40636;52.424;-1.948;2023-01-10T08:39:28;98885.59;;;5.27;100.00
43364;BME280;40636;52.424;-1.948;2023-01-10T08:42:00;98880.00;;;5.33;100.00
43364;BME280;40636;52.424;-1.948;2023-01-10T08:44:27;98875.47;;;5.39;100.00
43364;BME280;40636;52.424;-1.948;2023-01-10T08:46:55;98863.88;;;5.44;100.00
43364;BME280;40636;52.424;-1.948;2023-01-10T08:49:22;98861.56;;;5.52;100.00
43364;BME280;40636;52.424;-1.948;2023-01-10T08:51:49;98840.72;;;5.58;100.00
43364;BME280;40636;52.424;-1.948;2023-01-10T08:54:15;98832.88;;;5.62;100.00
43364;BME280;40636;52.424;-1.948;2023-01-10T08:56:42;98828.34;;;5.67;100.00
43364;BME280;40636;52.424;-1.948;2023-01-10T08:59:09;98821.59;;;5.70;100.00
43364;BME280;40636;52.424;-1.948;2023-01-10T09:01:35;98812.97;;;5.73;100.00
43364;BME280;40636;52.424;-1.948;2023-01-10T09:04:02;98814.59;;;5.74;100.00
43364;BME280;40636;52.424;-1.948;2023-01-10T09:06:31;98794.81;;;5.78;100.00
43364;BME280;40636;52.424;-1.948;2023-01-10T09:08:57;98787.53;;;5.84;100.00
43364;BME280;40636;52.424;-1.948;2023-01-10T09:11:24;98778.28;;;5.85;100.00
43364;BME280;40636;52.424;-1.948;2023-01-10T09:13:51;98775.06;;;5.88;100.00
43364;BME280;40636;52.424;-1.948;2023-01-10T09:16:18;98765.38;;;5.92;100.00
43364;BME280;40636;52.424;-1.948;2023-01-10T09:18:45;98779.56;;;5.94;100.00
43364;BME280;40636;52.424;-1.948;2023-01-10T09:21:12;98766.53;;;5.96;100.00
43364;BME280;40636;52.424;-1.948;2023-01-10T09:23:38;98769.59;;;6.00;100.00
43364;BME280;40636;52.424;-1.948;2023-01-10T09:26:05;98752.72;;;6.03;100.00
43364;BME280;40636;52.424;-1.948;2023-01-10T09:28:32;98755.50;;;6.08;100.00
43364;BME280;40636;52.424;-1.948;2023-01-10T09:30:59;98734.88;;;6.12;100.00
43364;BME280;40636;52.424;-1.948;2023-01-10T09:33:26;98709.59;;;6.17;100.00
43364;BME280;40636;52.424;-1.948;2023-01-10T09:36:07;98709.13;;;6.20;100.00
43364;BME280;40636;52.424;-1.948;2023-01-10T09:38:35;98698.53;;;6.23;100.00
43364;BME280;40636;52.424;-1.948;2023-01-10T09:44:13;98714.69;;;6.30;100.00
43364;BME280;40636;52.424;-1.948;2023-01-10T09:52:41;98690.53;;;6.39;100.00
43364;BME280;40636;52.424;-1.948;2023-01-10T09:55:28;98677.25;;;6.42;100.00
43364;BME280;40636;52.424;-1.948;2023-01-10T09:58:00;98674.56;;;6.47;100.00
43364;BME280;40636;52.424;-1.948;2023-01-10T10:00:37;98672.16;;;6.51;100.00
43364;BME280;40636;52.424;-1.948;2023-01-10T10:03:16;98658.28;;;6.52;100.00
43364;BME280;40636;52.424;-1.948;2023-01-10T10:05:44;98639.25;;;6.57;100.00
43364;BME280;40636;52.424;-1.948;2023-01-10T10:08:15;98627.84;;;6.60;100.00
43364;BME280;40636;52.424;-1.948;2023-01-10T10:13:39;98631.75;;;6.70;100.00
43364;BME280;40636;52.424;-1.948;2023-01-10T10:22:18;98632.16;;;6.83;100.00
43364;BME280;40636;52.424;-1.948;2023-01-10T10:27:35;98650.78;;;6.92;100.00
43364;BME280;40636;52.424;-1.948;2023-01-10T10:30:35;98640.47;;;6.99;100.00
43364;BME280;40636;52.424;-1.948;2023-01-10T10:36:10;98631.59;;;7.14;100.00
43364;BME280;40636;52.424;-1.948;2023-01-10T10:38:40;98631.09;;;7.22;100.00
43364;BME280;40636;52.424;-1.948;2023-01-10T10:43:51;98610.50;;;7.36;100.00
43364;BME280;40636;52.424;-1.948;2023-01-10T10:46:20;98625.53;;;7.44;100.00
43364;BME280;40636;52.424;-1.948;2023-01-10T10:48:57;98614.41;;;7.50;100.00
43364;BME280;40636;52.424;-1.948;2023-01-10T10:54:05;98601.09;;;7.64;100.00
43364;BME280;40636;52.424;-1.948;2023-01-10T10:56:34;98569.19;;;7.70;100.00
43364;BME280;40636;52.424;-1.948;2023-01-10T10:59:02;98580.69;;;7.77;100.00
43364;BME280;40636;52.424;-1.948;2023-01-10T11:01:30;98580.72;;;7.87;100.00
43364;BME280;40636;52.424;-1.948;2023-01-10T11:04:00;98574.72;;;7.90;100.00
43364;BME280;40636;52.424;-1.948;2023-01-10T11:06:29;98579.13;;;7.96;100.00
43364;BME280;40636;52.424;-1.948;2023-01-10T11:09:01;98572.59;;;8.02;100.00
43364;BME280;40636;52.424;-1.948;2023-01-10T11:11:32;98558.94;;;8.07;100.00
43364;BME280;40636;52.424;-1.948;2023-01-10T11:14:04;98548.88;;;8.18;100.00
43364;BME280;40636;52.424;-1.948;2023-01-10T11:16:35;98559.00;;;8.28;100.00
43364;BME280;40636;52.424;-1.948;2023-01-10T11:19:28;98548.63;;;8.35;100.00
43364;BME280;40636;52.424;-1.948;2023-01-10T11:21:59;98538.84;;;8.39;100.00
43364;BME280;40636;52.424;-1.948;2023-01-10T11:27:13;98523.00;;;8.56;100.00
43364;BME280;40636;52.424;-1.948;2023-01-10T11:29:48;98519.44;;;8.66;100.00
43364;BME280;40636;52.424;-1.948;2023-01-10T11:32:18;98516.44;;;8.73;100.00
43364;BME280;40636;52.424;-1.948;2023-01-10T11:34:54;98504.69;;;8.82;100.00
43364;BME280;40636;52.424;-1.948;2023-01-10T11:37:31;98503.84;;;8.92;100.00
43364;BME280;40636;52.424;-1.948;2023-01-10T11:40:21;98509.84;;;8.99;100.00
43364;BME280;40636;52.424;-1.948;2023-01-10T11:42:52;98497.81;;;9.05;100.00
43364;BME280;40636;52.424;-1.948;2023-01-10T11:45:23;98490.41;;;9.11;100.00
43364;BME280;40636;52.424;-1.948;2023-01-10T11:48:00;98477.53;;;9.17;100.00
43364;BME280;40636;52.424;-1.948;2023-01-10T11:50:31;98470.97;;;9.23;100.00
43364;BME280;40636;52.424;-1.948;2023-01-10T11:52:58;98465.47;;;9.28;100.00
43364;BME280;40636;52.424;-1.948;2023-01-10T11:55:28;98453.09;;;9.35;100.00
43364;BME280;40636;52.424;-1.948;2023-01-10T11:57:59;98452.56;;;9.38;100.00
43364;BME280;40636;52.424;-1.948;2023-01-10T12:00:32;98450.63;;;9.44;100.00
43364;BME280;40636;52.424;-1.948;2023-01-10T12:03:00;98441.56;;;9.49;100.00
43364;BME280;40636;52.424;-1.948;2023-01-10T12:05:27;98440.72;;;9.53;100.00
43364;BME280;40636;52.424;-1.948;2023-01-10T12:07:55;98432.50;;;9.58;100.00
43364;BME280;40636;52.424;-1.948;2023-01-10T12:10:25;98426.19;;;9.63;100.00
43364;BME280;40636;52.424;-1.948;2023-01-10T12:12:56;98435.44;;;9.67;100.00
43364;BME280;40636;52.424;-1.948;2023-01-10T12:15:28;98423.09;;;9.75;100.00
43364;BME280;40636;52.424;-1.948;2023-01-10T12:17:58;98423.59;;;9.82;100.00
43364;BME280;40636;52.424;-1.948;2023-01-10T12:20:27;98420.00;;;9.86;100.00
43364;BME280;40636;52.424;-1.948;2023-01-10T12:22:58;98419.69;;;9.93;100.00
43364;BME280;40636;52.424;-1.948;2023-01-10T12:25:31;98419.38;;;10.00;100.00
43364;BME280;40636;52.424;-1.948;2023-01-10T12:27:59;98409.19;;;10.05;100.00
43364;BME280;40636;52.424;-1.948;2023-01-10T12:30:39;98391.09;;;10.09;100.00
43364;BME280;40636;52.424;-1.948;2023-01-10T12:33:18;98406.38;;;10.15;100.00
43364;BME280;40636;52.424;-1.948;2023-01-10T12:35:58;98398.66;;;10.23;100.00
43364;BME280;40636;52.424;-1.948;2023-01-10T12:38:41;98393.16;;;10.28;100.00
43364;BME280;40636;52.424;-1.948;2023-01-10T12:54:57;98376.13;;;10.31;100.00
43364;BME280;40636;52.424;-1.948;2023-01-10T12:57:37;98375.31;;;10.30;100.00
43364;BME280;40636;52.424;-1.948;2023-01-10T13:00:06;98375.84;;;10.32;100.00
43364;BME280;40636;52.424;-1.948;2023-01-10T13:02:42;98375.56;;;10.34;100.00
43364;BME280;40636;52.424;-1.948;2023-01-10T13:05:21;98367.88;;;10.36;100.00
43364;BME280;40636;52.424;-1.948;2023-01-10T13:07:49;98376.09;;;10.36;100.00
43364;BME280;40636;52.424;-1.948;2023-01-10T13:10:20;98380.16;;;10.38;100.00
43364;BME280;40636;52.424;-1.948;2023-01-10T13:12:55;98364.25;;;10.40;100.00
43364;BME280;40636;52.424;-1.948;2023-01-10T13:15:37;98369.69;;;10.46;100.00
43364;BME280;40636;52.424;-1.948;2023-01-10T13:18:21;98352.13;;;10.47;100.00
43364;BME280;40636;52.424;-1.948;2023-01-10T13:21:11;98353.19;;;10.51;100.00
43364;BME280;40636;52.424;-1.948;2023-01-10T13:23:49;98344.66;;;10.52;100.00
43364;BME280;40636;52.424;-1.948;2023-01-10T13:26:18;98343.53;;;10.53;100.00
43364;BME280;40636;52.424;-1.948;2023-01-10T13:28:59;98334.75;;;10.56;100.00
43364;BME280;40636;52.424;-1.948;2023-01-10T13:31:33;98331.72;;;10.58;100.00
43364;BME280;40636;52.424;-1.948;2023-01-10T13:34:10;98320.16;;;10.61;100.00
43364;BME280;40636;52.424;-1.948;2023-01-10T13:37:26;98319.59;;;10.64;100.00
43364;BME280;40636;52.424;-1.948;2023-01-10T13:40:00;98318.22;;;10.61;100.00
43364;BME280;40636;52.424;-1.948;2023-01-10T13:42:28;98317.13;;;10.62;100.00
43364;BME280;40636;52.424;-1.948;2023-01-10T13:45:27;98318.78;;;10.63;100.00
43364;BME280;40636;52.424;-1.948;2023-01-10T13:52:52;98313.75;;;10.71;100.00
43364;BME280;40636;52.424;-1.948;2023-01-10T13:58:03;98309.63;;;10.73;100.00
43364;BME280;40636;52.424;-1.948;2023-01-10T14:03:38;98314.22;;;10.78;100.00
43364;BME280;40636;52.424;-1.948;2023-01-10T14:06:11;98303.53;;;10.76;100.00
43364;BME280;40636;52.424;-1.948;2023-01-10T14:08:40;98318.09;;;10.77;100.00
43364;BME280;40636;52.424;-1.948;2023-01-10T14:11:11;98307.09;;;10.77;100.00
43364;BME280;40636;52.424;-1.948;2023-01-10T14:13:46;98302.19;;;10.74;100.00
43364;BME280;40636;52.424;-1.948;2023-01-10T14:16:32;98298.34;;;10.75;100.00
43364;BME280;40636;52.424;-1.948;2023-01-10T14:19:02;98296.72;;;10.74;100.00
43364;BME280;40636;52.424;-1.948;2023-01-10T14:21:34;98280.25;;;10.74;100.00
43364;BME280;40636;52.424;-1.948;2023-01-10T14:24:03;98292.84;;;10.75;100.00
43364;BME280;40636;52.424;-1.948;2023-01-10T14:26:33;98287.38;;;10.75;100.00
43364;BME280;40636;52.424;-1.948;2023-01-10T14:29:07;98296.41;;;10.75;100.00
43364;BME280;40636;52.424;-1.948;2023-01-10T14:31:42;98279.13;;;10.75;100.00